Time;durP1;ratioP1;P1;durP2;ratioP2;P2;SDS_P1;SDS_P2;PMS_P1;PMS_P2;Temp;Humidity;BMP_temperature;BMP_pressure;BME280_temperature;BME280_humidity;BME280_pressure;Samples;Min_cycle;Max_cycle;Signal;HPM_P1;HPM_P2
2021/04/12 00:02:59;;;;;;;9.25;3.92;;;11.20;70.20;;;;;;5047987;28;20025;-68
2021/04/12 00:05:30;;;;;;;12.10;3.92;;;11.10;70.30;;;;;;5006494;28;20204;-67
2021/04/12 00:08:10;;;;;;;8.90;3.60;;;11.00;70.60;;;;;;5042496;28;20056;-68
2021/04/12 00:10:54;;;;;;;8.23;3.42;;;11.10;70.00;;;;;;5047611;28;20035;-68
2021/04/12 00:13:44;;;;;;;11.63;3.97;;;11.10;69.40;;;;;;5048759;28;20105;-68
2021/04/12 00:16:28;;;;;;;9.73;3.28;;;11.10;69.70;;;;;;5047537;28;20048;-66
2021/04/12 00:19:16;;;;;;;13.43;3.88;;;11.10;69.70;;;;;;5048505;28;20485;-68
2021/04/12 00:21:45;;;;;;;9.52;3.65;;;11.30;68.40;;;;;;5048292;28;20095;-68
2021/04/12 00:24:15;;;;;;;9.82;4.40;;;11.30;68.30;;;;;;5048364;28;20029;-68
2021/04/12 00:26:55;;;;;;;8.07;3.97;;;11.30;68.40;;;;;;5048543;28;20025;-68
2021/04/12 00:29:31;;;;;;;11.25;3.53;;;11.40;67.70;;;;;;5048404;28;20025;-68
2021/04/12 00:32:06;;;;;;;10.80;3.77;;;11.40;67.20;;;;;;5048211;28;20555;-67
2021/04/12 00:34:56;;;;;;;5.45;3.03;;;11.40;67.20;;;;;;5046983;28;20655;-68
2021/04/12 00:37:26;;;;;;;8.43;3.42;;;11.50;66.50;;;;;;5048358;28;20021;-68
2021/04/12 00:39:58;;;;;;;6.78;3.00;;;11.30;66.70;;;;;;5048153;28;20114;-68
2021/04/12 00:42:29;;;;;;;9.38;4.03;;;11.30;67.20;;;;;;5048259;28;20025;-67
2021/04/12 00:45:14;;;;;;;8.23;3.75;;;11.30;67.20;;;;;;5048019;28;20061;-68
2021/04/12 00:47:42;;;;;;;11.85;3.55;;;11.30;67.20;;;;;;5048098;28;20029;-67
2021/04/12 00:51:06;;;;;;;11.65;3.80;;;11.20;67.70;;;;;;5048187;28;20033;-68
2021/04/12 00:53:40;;;;;;;7.70;3.53;;;11.30;68.80;;;;;;4986390;28;20085;-68
2021/04/12 00:56:40;;;;;;;9.20;3.53;;;11.30;68.30;;;;;;4986388;28;20077;-68
2021/04/12 00:59:20;;;;;;;14.38;4.07;;;11.30;67.90;;;;;;5022586;28;20045;-68
2021/04/12 01:01:52;;;;;;;10.25;3.78;;;11.50;67.50;;;;;;5047943;28;20070;-68
2021/04/12 01:04:38;;;;;;;11.77;4.43;;;11.40;67.90;;;;;;5048104;28;20072;-68
2021/04/12 01:07:34;;;;;;;14.30;3.88;;;11.30;68.10;;;;;;5048088;28;20040;-68
2021/04/12 01:10:12;;;;;;;12.20;4.47;;;11.40;67.70;;;;;;5047027;28;20064;-68
2021/04/12 01:12:59;;;;;;;12.15;5.03;;;11.30;68.30;;;;;;5048101;28;20025;-68
2021/04/12 01:16:12;;;;;;;15.52;5.65;;;11.30;68.70;;;;;;5048140;28;20493;-68
2021/04/12 01:19:25;;;;;;;11.70;4.63;;;11.40;68.80;;;;;;5005710;28;20037;-68
2021/04/12 01:22:39;;;;;;;7.15;4.07;;;11.30;69.50;;;;;;5041995;28;20120;-67
2021/04/12 01:25:22;;;;;;;11.15;5.30;;;11.40;69.70;;;;;;5046448;28;20036;-68
2021/04/12 01:28:26;;;;;;;12.40;5.28;;;11.30;70.00;;;;;;5046384;28;20504;-67
2021/04/12 01:31:09;;;;;;;12.85;5.03;;;11.20;70.50;;;;;;5048573;28;20040;-68
2021/04/12 01:33:47;;;;;;;12.63;5.78;;;11.10;70.80;;;;;;5051595;28;20025;-68
2021/04/12 01:36:30;;;;;;;16.23;4.57;;;11.10;70.70;;;;;;5051551;28;20457;-68
2021/04/12 01:39:29;;;;;;;10.93;5.45;;;11.10;70.80;;;;;;5051427;28;20025;-68
2021/04/12 01:42:01;;;;;;;14.60;5.03;;;11.20;70.50;;;;;;5050242;28;20331;-67
2021/04/12 01:44:39;;;;;;;10.93;4.90;;;11.10;70.60;;;;;;5051241;28;20071;-68
2021/04/12 01:47:17;;;;;;;19.20;4.65;;;11.20;69.70;;;;;;5051347;28;20049;-67
2021/04/12 01:49:58;;;;;;;13.77;5.53;;;11.10;70.10;;;;;;5051151;28;20036;-68
2021/04/12 01:52:50;;;;;;;10.23;5.18;;;11.10;70.40;;;;;;5051439;28;20052;-68
2021/04/12 01:55:41;;;;;;;12.45;5.90;;;11.10;70.40;;;;;;5050009;28;20627;-68
2021/04/12 01:58:29;;;;;;;11.18;5.40;;;11.00;70.20;;;;;;5051269;28;20063;-68
2021/04/12 02:00:55;;;;;;;17.92;5.85;;;10.90;70.10;;;;;;5050682;28;20040;-68
2021/04/12 02:03:39;;;;;;;;;;;10.90;70.40;;;;;;5051539;28;20033;-68
2021/04/12 02:06:37;;;;;;;9.10;5.85;;;10.90;70.80;;;;;;5051171;28;19947;-68
2021/04/12 02:09:18;;;;;;;9.80;5.43;;;10.90;71.10;;;;;;5050952;28;20771;-68
2021/04/12 02:12:13;;;;;;;11.90;5.80;;;10.90;71.80;;;;;;5050940;28;20463;-68
2021/04/12 02:14:46;;;;;;;12.15;5.50;;;10.90;71.70;;;;;;5032094;28;20116;-68
2021/04/12 02:17:25;;;;;;;9.93;5.82;;;10.80;71.00;;;;;;5050866;28;20036;-68
2021/04/12 02:19:54;;;;;;;13.50;5.68;;;10.70;71.00;;;;;;5050565;28;20029;-68
2021/04/12 02:22:57;;;;;;;16.30;6.15;;;10.90;69.80;;;;;;5050677;28;20021;-68
2021/04/12 02:25:47;;;;;;;12.68;5.57;;;11.00;69.40;;;;;;5050744;28;20052;-68
2021/04/12 02:28:34;;;;;;;12.55;5.30;;;11.00;69.20;;;;;;5050531;28;20878;-68
2021/04/12 02:31:21;;;;;;;;;;;11.00;68.50;;;;;;5050955;28;20114;-68
2021/04/12 02:34:01;;;;;;;13.45;5.95;;;11.10;67.70;;;;;;5050375;28;20566;-68
2021/04/12 02:36:29;;;;;;;10.35;4.72;;;11.00;67.50;;;;;;5050360;28;20021;-68
2021/04/12 02:39:01;;;;;;;12.25;5.03;;;11.00;67.30;;;;;;5050370;28;20071;-68
2021/04/12 02:42:06;;;;;;;9.88;5.00;;;11.10;67.10;;;;;;5049125;28;20036;-67
2021/04/12 02:44:55;;;;;;;11.05;5.55;;;11.00;67.20;;;;;;5015706;28;20461;-67
2021/04/12 02:47:56;;;;;;;13.15;5.63;;;11.00;67.30;;;;;;5049045;28;20033;-68
2021/04/12 02:50:57;;;;;;;11.70;5.07;;;11.10;66.90;;;;;;5048873;28;20504;-68
2021/04/12 02:53:45;;;;;;;15.75;5.47;;;11.10;65.60;;;;;;5049560;28;20056;-68
2021/04/12 02:56:48;;;;;;;14.27;5.72;;;11.20;65.70;;;;;;5050082;28;20033;-68
2021/04/12 02:59:28;;;;;;;16.02;5.90;;;11.10;65.80;;;;;;5048697;28;20028;-68
2021/04/12 03:02:06;;;;;;;14.10;5.40;;;11.10;66.20;;;;;;5050001;28;20556;-68
2021/04/12 03:04:37;;;;;;;8.70;5.00;;;11.10;66.40;;;;;;5048484;28;20410;-68
2021/04/12 03:07:37;;;;;;;14.02;5.45;;;11.20;66.60;;;;;;5048549;28;20025;-66
2021/04/12 03:10:14;;;;;;;13.45;5.72;;;11.10;67.00;;;;;;5049918;28;20075;-68
2021/04/12 03:12:58;;;;;;;12.88;5.95;;;11.00;67.30;;;;;;5049742;28;20028;-69
2021/04/12 03:15:50;;;;;;;14.85;5.65;;;10.90;67.50;;;;;;5049783;28;20508;-68
2021/04/12 03:18:25;;;;;;;14.48;5.90;;;11.00;67.90;;;;;;5033592;28;20037;-68
2021/04/12 03:21:16;;;;;;;15.43;5.80;;;10.80;68.10;;;;;;5048184;28;20650;-68
2021/04/12 03:24:14;;;;;;;13.90;6.05;;;10.90;68.00;;;;;;5049322;28;20404;-68
2021/04/12 03:26:46;;;;;;;12.70;5.65;;;10.80;68.30;;;;;;5049493;28;20043;-68
2021/04/12 03:29:33;;;;;;;15.43;5.85;;;10.70;67.90;;;;;;5049527;28;20036;-68
2021/04/12 03:32:19;;;;;;;;;;;10.70;68.40;;;;;;5049998;28;20028;-68
2021/04/12 03:35:15;;;;;;;9.60;5.20;;;10.70;68.70;;;;;;5049411;28;19916;-68
2021/04/12 03:38:00;;;;;;;30.60;6.63;;;10.60;68.90;;;;;;5049163;28;20029;-68
2021/04/12 03:40:34;;;;;;;14.40;5.75;;;10.60;69.10;;;;;;5048085;28;20524;-68
2021/04/12 03:43:19;;;;;;;12.52;5.45;;;10.60;68.90;;;;;;5049064;28;20385;-68
2021/04/12 03:46:06;;;;;;;11.73;5.70;;;10.60;68.80;;;;;;5048810;28;20102;-68
2021/04/12 03:48:37;;;;;;;;;;;10.60;69.00;;;;;;5048106;28;20032;-68
2021/04/12 03:51:24;;;;;;;13.82;6.10;;;10.60;69.50;;;;;;5048884;28;19905;-68
2021/04/12 03:54:32;;;;;;;11.57;5.40;;;10.50;69.80;;;;;;5048407;28;20041;-68
2021/04/12 03:57:38;;;;;;;9.65;5.40;;;10.30;70.70;;;;;;5048787;28;20099;-67
2021/04/12 04:00:19;;;;;;;15.38;5.80;;;10.20;71.20;;;;;;5043131;28;20067;-67
2021/04/12 04:03:22;;;;;;;13.38;6.55;;;10.10;71.60;;;;;;5047580;28;20029;-68
2021/04/12 04:06:03;;;;;;;10.93;5.07;;;10.10;71.30;;;;;;5047450;28;20037;-68
2021/04/12 04:08:57;;;;;;;10.70;5.47;;;10.10;71.60;;;;;;5047478;28;20614;-68
2021/04/12 04:11:52;;;;;;;10.52;6.45;;;10.00;71.90;;;;;;5048705;28;20040;-68
2021/04/12 04:14:33;;;;;;;11.07;5.75;;;10.00;72.10;;;;;;5030530;28;20036;-67
2021/04/12 04:17:16;;;;;;;15.98;6.32;;;10.00;72.10;;;;;;5047516;28;20033;-67
2021/04/12 04:20:00;;;;;;;13.88;7.63;;;10.00;72.00;;;;;;5048510;28;20025;-68
2021/04/12 04:22:47;;;;;;;17.63;6.20;;;10.10;71.90;;;;;;5048545;28;20040;-68
2021/04/12 04:25:29;;;;;;;16.67;6.30;;;10.10;71.90;;;;;;5048425;28;20036;-68
2021/04/12 04:28:11;;;;;;;14.60;7.28;;;10.20;71.70;;;;;;5048359;28;20036;-68
2021/04/12 04:30:40;;;;;;;12.07;6.28;;;10.30;71.20;;;;;;5048451;28;20040;-68
2021/04/12 04:33:35;;;;;;;15.27;6.13;;;10.50;70.60;;;;;;5048348;28;20033;-69
2021/04/12 04:36:29;;;;;;;18.42;7.20;;;10.60;70.50;;;;;;5046924;28;20021;-68
2021/04/12 04:39:25;;;;;;;13.82;6.15;;;10.80;70.00;;;;;;5048373;28;20028;-68
2021/04/12 04:42:15;;;;;;;11.32;6.07;;;11.10;68.30;;;;;;5046820;28;20033;-69
2021/04/12 04:45:05;;;;;;;11.90;6.10;;;11.20;68.30;;;;;;5048130;28;20442;-66
2021/04/12 04:47:48;;;;;;;11.82;6.00;;;11.30;68.10;;;;;;5048083;28;20060;-68
2021/04/12 04:51:03;;;;;;;12.43;6.85;;;11.30;67.80;;;;;;5048150;28;20029;-67
2021/04/12 04:53:51;;;;;;;17.48;6.65;;;11.40;67.80;;;;;;5046582;28;20032;-68
2021/04/12 04:56:57;;;;;;;15.18;6.47;;;11.60;66.90;;;;;;5046879;28;20044;-68
2021/04/12 04:59:55;;;;;;;14.23;6.13;;;11.70;65.80;;;;;;5048134;28;20489;-68
2021/04/12 05:02:51;;;;;;;14.02;5.65;;;11.90;65.50;;;;;;5047268;28;20501;-69
2021/04/12 05:05:38;;;;;;;13.07;6.03;;;12.00;64.90;;;;;;5047334;28;20040;-66
2021/04/12 05:08:44;;;;;;;14.00;6.82;;;12.00;65.10;;;;;;5052235;28;20344;-68
2021/04/12 05:11:32;;;;;;;24.35;8.85;;;12.00;65.40;;;;;;5036406;28;20508;-68
2021/04/12 05:14:39;;;;;;;15.45;6.68;;;12.10;64.50;;;;;;5051885;28;20541;-68
2021/04/12 05:17:38;;;;;;;15.30;7.60;;;12.10;64.80;;;;;;5037529;28;20048;-68
2021/04/12 05:20:41;;;;;;;17.90;7.75;;;12.10;64.10;;;;;;5051818;28;20060;-68
2021/04/12 05:23:42;;;;;;;14.20;6.78;;;12.10;64.20;;;;;;5051750;28;20428;-68
2021/04/12 05:26:35;;;;;;;11.32;6.18;;;12.40;64.30;;;;;;5050445;28;20131;-69
2021/04/12 05:29:24;;;;;;;15.23;6.50;;;13.00;63.30;;;;;;5051708;28;20028;-68
2021/04/12 05:32:26;;;;;;;16.10;5.88;;;13.70;58.70;;;;;;5050121;28;20028;-68
2021/04/12 05:34:58;;;;;;;13.60;6.15;;;13.80;58.20;;;;;;5051711;28;20420;-69
2021/04/12 05:37:51;;;;;;;13.55;5.32;;;13.70;59.20;;;;;;5051552;28;20032;-68
2021/04/12 05:40:37;;;;;;;9.95;4.47;;;13.70;59.70;;;;;;5051322;28;20040;-68
2021/04/12 05:43:21;;;;;;;12.50;4.78;;;13.70;59.80;;;;;;5051370;28;20379;-69
2021/04/12 05:46:24;;;;;;;10.20;5.18;;;13.60;58.80;;;;;;5049476;28;20063;-68
2021/04/12 05:49:14;;;;;;;18.20;6.18;;;13.60;59.00;;;;;;5051316;28;20096;-68
2021/04/12 05:52:18;;;;;;;26.95;6.20;;;13.50;59.40;;;;;;5051145;28;20378;-68
2021/04/12 05:55:15;;;;;;;11.50;4.72;;;13.40;59.70;;;;;;5049979;28;20059;-68
2021/04/12 05:58:19;;;;;;;12.67;6.03;;;13.30;60.20;;;;;;5050032;28;20037;-68
2021/04/12 06:01:00;;;;;;;13.88;5.95;;;13.20;60.40;;;;;;4989090;28;20184;-68
2021/04/12 06:04:12;;;;;;;12.43;5.50;;;13.20;59.90;;;;;;5045848;28;20175;-68
2021/04/12 06:06:50;;;;;;;9.60;4.63;;;13.10;60.20;;;;;;5048862;28;20049;-68
2021/04/12 06:10:06;;;;;;;10.15;5.00;;;13.00;60.70;;;;;;5050990;28;20033;-69
2021/04/12 06:12:53;;;;;;;8.85;4.95;;;13.00;61.80;;;;;;5050611;28;20022;-69
2021/04/12 06:15:38;;;;;;;9.57;4.72;;;13.10;62.30;;;;;;5050870;28;20040;-68
2021/04/12 06:18:19;;;;;;;10.43;4.68;;;13.10;62.50;;;;;;5048871;28;20029;-68
2021/04/12 06:21:24;;;;;;;9.45;5.05;;;13.20;62.20;;;;;;5050642;28;20137;-69
2021/04/12 06:24:14;;;;;;;8.45;4.90;;;13.40;62.00;;;;;;5050427;28;20402;-69
2021/04/12 06:26:51;;;;;;;10.48;5.32;;;13.40;60.60;;;;;;5050074;28;20040;-68
2021/04/12 06:29:20;;;;;;;11.77;4.68;;;13.40;60.60;;;;;;5049634;28;20044;-68
2021/04/12 06:32:10;;;;;;;10.32;5.05;;;13.40;60.00;;;;;;5050388;28;20595;-68
2021/04/12 06:35:00;;;;;;;11.18;4.53;;;13.50;59.40;;;;;;5050535;28;20025;-68
2021/04/12 06:38:00;;;;;;;12.05;5.75;;;13.70;59.20;;;;;;5050519;28;20020;-67
2021/04/12 06:40:31;;;;;;;12.52;5.93;;;13.80;57.60;;;;;;5049138;28;20111;-69
2021/04/12 06:43:29;;;;;;;14.23;6.00;;;14.10;57.70;;;;;;5050351;28;20040;-68
2021/04/12 06:46:06;;;;;;;;;;;14.80;56.30;;;;;;5050603;28;20643;-68
2021/04/12 06:48:51;;;;;;;12.52;6.80;;;15.20;54.40;;;;;;5050291;28;19909;-68
2021/04/12 06:51:38;;;;;;;15.57;6.55;;;15.50;52.90;;;;;;5048757;28;20071;-68
2021/04/12 06:54:07;;;;;;;18.67;5.85;;;15.60;52.50;;;;;;5048699;28;20025;-68
2021/04/12 06:57:03;;;;;;;13.35;4.95;;;15.80;51.90;;;;;;5049662;28;20496;-67
2021/04/12 06:59:47;;;;;;;10.90;5.43;;;16.00;49.50;;;;;;5050064;28;20033;-68
2021/04/12 07:02:55;;;;;;;12.88;5.30;;;16.20;49.20;;;;;;5048537;28;20025;-67
2021/04/12 07:05:26;;;;;;;11.70;5.38;;;16.20;48.20;;;;;;5049969;28;20109;-68
2021/04/12 07:08:20;;;;;;;11.82;5.30;;;16.10;49.10;;;;;;5049770;28;20599;-68
2021/04/12 07:10:59;;;;;;;11.55;4.82;;;16.10;49.30;;;;;;5047995;28;20111;-68
2021/04/12 07:13:42;;;;;;;8.27;4.88;;;16.30;49.00;;;;;;5049527;28;20044;-68
2021/04/12 07:16:25;;;;;;;12.30;5.80;;;17.00;48.00;;;;;;5048483;28;20107;-69
2021/04/12 07:19:29;;;;;;;13.52;5.43;;;18.00;47.30;;;;;;5049757;28;20041;-68
2021/04/12 07:22:00;;;;;;;17.83;5.43;;;19.00;42.90;;;;;;5007199;28;20919;-69
2021/04/12 07:25:03;;;;;;;13.20;5.18;;;19.10;43.00;;;;;;5043164;28;20053;-69
2021/04/12 07:28:20;;;;;;;12.48;5.10;;;19.60;42.70;;;;;;5049444;28;20027;-68
2021/04/12 07:31:16;;;;;;;8.25;4.47;;;20.90;41.50;;;;;;5012992;28;20501;-69
2021/04/12 07:33:58;;;;;;;12.77;5.30;;;22.50;37.70;;;;;;5048209;28;20055;-68
2021/04/12 07:36:36;;;;;;;12.40;5.30;;;23.40;34.50;;;;;;5049426;28;20118;-68
2021/04/12 07:39:16;;;;;;;12.82;5.65;;;24.20;31.90;;;;;;5049128;28;20047;-68
2021/04/12 07:42:04;;;;;;;11.80;5.72;;;24.30;31.50;;;;;;5047801;28;20029;-68
2021/04/12 07:45:23;;;;;;;11.45;5.45;;;24.50;31.60;;;;;;5047657;28;20546;-68
2021/04/12 07:48:26;;;;;;;13.57;5.85;;;24.80;30.40;;;;;;5048963;28;20021;-68
2021/04/12 07:51:22;;;;;;;13.32;4.95;;;24.30;31.40;;;;;;5049000;28;20037;-68
2021/04/12 07:54:06;;;;;;;8.73;4.97;;;23.80;32.00;;;;;;5048921;28;20489;-68
2021/04/12 07:57:11;;;;;;;14.45;5.40;;;23.80;32.70;;;;;;5048990;28;20028;-67
2021/04/12 08:00:01;;;;;;;9.00;4.53;;;24.50;30.90;;;;;;5048713;28;20033;-67
2021/04/12 08:02:51;;;;;;;14.07;5.95;;;24.80;30.00;;;;;;5048742;28;20465;-68
2021/04/12 08:05:35;;;;;;;10.50;4.22;;;25.50;30.10;;;;;;5048811;28;20045;-67
2021/04/12 08:08:28;;;;;;;12.55;5.57;;;26.20;29.40;;;;;;5047453;28;20036;-68
2021/04/12 08:11:03;;;;;;;10.25;5.88;;;27.00;28.40;;;;;;5048665;28;20025;-68
2021/04/12 08:14:06;;;;;;;12.35;5.05;;;27.30;27.70;;;;;;5048491;28;20097;-67
2021/04/12 08:16:53;;;;;;;10.40;4.85;;;28.00;26.90;;;;;;5048407;28;20086;-68
2021/04/12 08:19:57;;;;;;;11.48;5.18;;;28.00;26.70;;;;;;5047240;28;20060;-68
2021/04/12 08:22:28;;;;;;;8.30;4.70;;;27.50;26.40;;;;;;5048363;28;20405;-67
2021/04/12 08:24:54;;;;;;;12.93;4.97;;;27.50;26.40;;;;;;5047092;28;20390;-67
2021/04/12 08:27:57;;;;;;;8.50;4.72;;;27.40;27.00;;;;;;5048474;28;20078;-67
2021/04/12 08:30:26;;;;;;;8.60;4.35;;;27.50;26.20;;;;;;5047066;28;20155;-68
2021/04/12 08:33:13;;;;;;;9.75;4.90;;;27.80;26.30;;;;;;5048403;28;20037;-67
2021/04/12 08:35:58;;;;;;;10.45;4.75;;;27.40;26.90;;;;;;5046867;28;20515;-67
2021/04/12 08:38:43;;;;;;;11.38;4.38;;;27.40;27.60;;;;;;5048359;28;20075;-67
2021/04/12 08:41:38;;;;;;;9.00;4.47;;;27.60;27.10;;;;;;5048079;28;20503;-67
2021/04/12 08:44:15;;;;;;;12.10;4.70;;;27.50;27.10;;;;;;5048105;28;20287;-67
2021/04/12 08:46:59;;;;;;;9.38;4.25;;;27.50;27.30;;;;;;5048331;28;20025;-68
2021/04/12 08:50:02;;;;;;;12.82;4.28;;;27.20;27.70;;;;;;5048153;28;20025;-67
2021/04/12 08:52:52;;;;;;;12.45;5.05;;;26.90;28.20;;;;;;5046875;28;20843;-67
2021/04/12 08:55:46;;;;;;;14.05;4.88;;;26.70;28.80;;;;;;5048183;28;20516;-68
2021/04/12 08:58:20;;;;;;;9.77;5.10;;;26.40;28.10;;;;;;5048147;28;20025;-68
2021/04/12 09:01:24;;;;;;;10.18;5.05;;;26.50;29.10;;;;;;5046484;28;20051;-68
2021/04/12 09:04:26;;;;;;;9.90;5.47;;;27.00;27.90;;;;;;5047908;28;20084;-67
2021/04/12 09:07:29;;;;;;;20.10;4.55;;;26.80;28.20;;;;;;5048135;28;20079;-66
2021/04/12 09:10:30;;;;;;;10.68;5.57;;;26.00;28.70;;;;;;5046523;28;20394;-66
2021/04/12 09:13:36;;;;;;;11.57;4.30;;;25.40;29.70;;;;;;5013833;28;20067;-68
2021/04/12 09:16:20;;;;;;;9.90;4.10;;;24.90;30.80;;;;;;5048028;28;20084;-66
2021/04/12 09:19:15;;;;;;;9.88;4.75;;;24.50;31.10;;;;;;5048019;28;20037;-66
2021/04/12 09:22:02;;;;;;;9.35;4.63;;;24.50;32.20;;;;;;5046388;28;20036;-67
2021/04/12 09:25:09;;;;;;;13.90;4.85;;;25.10;31.80;;;;;;5047918;28;20110;-67
2021/04/12 09:27:50;;;;;;;9.27;5.25;;;25.60;30.40;;;;;;5033414;28;20068;-67
2021/04/12 09:30:53;;;;;;;11.80;5.25;;;25.30;30.30;;;;;;5047918;28;20079;-67
2021/04/12 09:33:55;;;;;;;15.88;5.78;;;24.70;31.40;;;;;;5046654;28;20029;-68
2021/04/12 09:36:50;;;;;;;11.70;5.00;;;24.60;32.40;;;;;;5047904;28;20403;-68
2021/04/12 09:39:30;;;;;;;11.20;5.85;;;24.60;32.10;;;;;;5025042;28;20047;-68
2021/04/12 09:41:55;;;;;;;12.73;5.60;;;24.30;32.40;;;;;;5047618;28;20025;-67
2021/04/12 09:45:11;;;;;;;8.32;4.50;;;23.90;32.60;;;;;;5047071;28;20119;-67
2021/04/12 09:48:00;;;;;;;12.38;4.72;;;23.30;33.90;;;;;;5005014;28;20038;-68
2021/04/12 09:50:51;;;;;;;10.07;4.50;;;22.90;34.90;;;;;;5046554;28;20025;-67
2021/04/12 09:53:35;;;;;;;12.43;4.70;;;22.50;35.70;;;;;;5049256;28;20025;-68
2021/04/12 09:56:26;;;;;;;18.35;5.97;;;21.60;37.40;;;;;;5050906;28;20748;-66
2021/04/12 09:59:13;;;;;;;8.68;4.50;;;21.20;38.50;;;;;;5032305;28;20041;-68
2021/04/12 10:01:53;;;;;;;15.98;4.25;;;20.90;39.00;;;;;;5051069;28;20049;-68
2021/04/12 10:04:42;;;;;;;7.70;3.78;;;20.40;40.20;;;;;;5050717;28;20124;-68
2021/04/12 10:07:10;;;;;;;15.07;4.05;;;20.20;40.80;;;;;;5050610;28;20072;-68
2021/04/12 10:10:02;;;;;;;12.82;3.97;;;20.20;41.50;;;;;;5050877;28;20430;-68
2021/04/12 10:12:35;;;;;;;8.38;3.00;;;20.30;42.20;;;;;;5034837;28;20052;-68
2021/04/12 10:15:16;;;;;;;9.05;2.42;;;20.50;41.00;;;;;;5050850;28;20512;-68
2021/04/12 10:17:51;;;;;;;10.73;2.65;;;20.60;40.50;;;;;;5050642;28;20036;-68
2021/04/12 10:20:35;;;;;;;11.48;2.55;;;20.40;40.40;;;;;;5050566;28;20041;-68
2021/04/12 10:23:17;;;;;;;11.50;2.85;;;20.60;40.50;;;;;;5050396;28;20036;-67
2021/04/12 10:26:03;;;;;;;12.10;1.80;;;20.80;40.30;;;;;;5050463;28;20048;-68
2021/04/12 10:28:51;;;;;;;12.00;2.33;;;21.00;39.60;;;;;;5050321;28;20033;-68
2021/04/12 10:31:27;;;;;;;7.30;1.42;;;21.40;39.60;;;;;;5048662;28;20048;-68
2021/04/12 10:34:15;;;;;;;14.55;2.28;;;21.60;38.60;;;;;;5050402;28;20066;-68
2021/04/12 10:37:01;;;;;;;11.48;1.80;;;22.00;37.70;;;;;;5050456;28;20025;-68
2021/04/12 10:39:51;;;;;;;6.00;1.05;;;22.00;37.20;;;;;;5050581;28;20124;-66
2021/04/12 10:42:40;;;;;;;4.50;1.00;;;21.80;37.50;;;;;;5050343;28;20399;-67
2021/04/12 10:45:22;;;;;;;5.68;1.20;;;21.60;38.00;;;;;;5050130;28;20052;-67
2021/04/12 10:47:59;;;;;;;6.93;1.00;;;21.50;38.40;;;;;;5050094;28;20025;-66
2021/04/12 10:50:50;;;;;;;10.20;1.42;;;21.30;38.40;;;;;;5050188;28;20025;-67
2021/04/12 10:53:47;;;;;;;11.82;1.95;;;21.30;38.60;;;;;;5048886;28;20021;-67
2021/04/12 10:56:15;;;;;;;4.80;1.42;;;21.40;38.60;;;;;;5050109;28;20021;-67
2021/04/12 10:59:18;;;;;;;3.92;0.93;;;21.50;38.70;;;;;;5050172;28;20108;-67
2021/04/12 11:01:59;;;;;;;11.85;1.42;;;21.80;38.20;;;;;;5049839;28;20035;-67
2021/04/12 11:05:04;;;;;;;5.30;1.00;;;21.80;38.00;;;;;;5049879;28;20044;-69
2021/04/12 11:07:42;;;;;;;5.70;1.50;;;21.90;37.80;;;;;;5048347;28;20094;-68
2021/04/12 11:10:26;;;;;;;8.30;1.05;;;21.90;37.20;;;;;;5049666;28;20409;-68
2021/04/12 11:13:05;;;;;;;8.45;2.13;;;21.80;37.00;;;;;;5049647;28;20025;-68
2021/04/12 11:15:42;;;;;;;4.20;1.08;;;21.90;37.40;;;;;;5049615;28;20063;-68
2021/04/12 11:18:26;;;;;;;7.93;1.25;;;21.80;37.60;;;;;;5048454;28;20091;-68
2021/04/12 11:20:59;;;;;;;7.90;1.33;;;21.80;38.40;;;;;;5049453;28;20025;-68
2021/04/12 11:23:27;;;;;;;10.05;1.63;;;22.00;37.60;;;;;;5049700;28;20112;-69
2021/04/12 11:26:23;;;;;;;5.80;1.58;;;22.10;37.30;;;;;;5049573;28;20095;-68
2021/04/12 11:29:01;;;;;;;4.35;0.95;;;22.30;36.70;;;;;;5049594;28;20108;-68
2021/04/12 11:31:45;;;;;;;8.38;1.35;;;22.20;36.50;;;;;;5048046;28;20033;-68
2021/04/12 11:34:37;;;;;;;6.72;1.15;;;22.20;36.40;;;;;;5048121;28;20033;-68
2021/04/12 11:37:40;;;;;;;8.65;1.63;;;22.20;36.70;;;;;;5049137;28;20324;-68
2021/04/12 11:40:27;;;;;;;10.13;1.13;;;22.30;35.80;;;;;;5039834;28;20049;-69
2021/04/12 11:42:58;;;;;;;4.68;0.80;;;22.10;36.50;;;;;;5049191;28;20029;-68
2021/04/12 11:45:40;;;;;;;2.92;1.20;;;22.00;36.50;;;;;;5049133;28;20057;-68
2021/04/12 11:48:27;;;;;;;10.98;1.13;;;22.10;36.40;;;;;;5049204;28;20049;-69
2021/04/12 11:51:09;;;;;;;9.40;0.95;;;22.20;36.10;;;;;;5049085;28;20025;-68
2021/04/12 11:54:00;;;;;;;5.65;1.27;;;22.30;36.10;;;;;;5048963;28;20031;-68
2021/04/12 11:56:44;;;;;;;5.57;1.08;;;22.20;36.70;;;;;;5048978;28;20036;-68
2021/04/12 11:59:36;;;;;;;6.47;1.35;;;22.30;36.50;;;;;;5048797;28;20051;-68
2021/04/12 12:02:12;;;;;;;8.90;1.52;;;22.30;36.20;;;;;;5048986;28;20068;-68
2021/04/12 12:05:04;;;;;;;11.98;1.60;;;22.20;35.80;;;;;;5049106;28;20488;-68
2021/04/12 12:07:55;;;;;;;6.70;1.60;;;22.20;36.80;;;;;;5048752;28;20147;-68
2021/04/12 12:10:54;;;;;;;6.72;1.00;;;22.20;36.70;;;;;;5048729;28;20044;-68
2021/04/12 12:13:38;;;;;;;6.00;1.23;;;22.20;37.20;;;;;;5048793;28;20155;-68
2021/04/12 12:16:29;;;;;;;7.82;1.38;;;22.30;36.80;;;;;;5048362;28;20028;-68
2021/04/12 12:19:04;;;;;;;7.75;1.00;;;22.50;37.00;;;;;;5048567;28;20029;-68
2021/04/12 12:21:45;;;;;;;6.32;1.38;;;22.70;37.10;;;;;;5048471;28;20029;-67
2021/04/12 12:24:27;;;;;;;7.13;1.30;;;23.00;36.70;;;;;;5048499;28;20111;-69
2021/04/12 12:27:25;;;;;;;4.53;1.25;;;23.30;35.80;;;;;;5048420;28;20032;-68
2021/04/12 12:29:59;;;;;;;7.75;1.48;;;23.50;34.40;;;;;;5046897;28;20025;-68
2021/04/12 12:33:00;;;;;;;6.25;1.67;;;23.50;34.20;;;;;;5048442;28;20063;-68
2021/04/12 12:35:36;;;;;;;5.97;1.30;;;23.50;34.10;;;;;;5045432;28;20040;-68
2021/04/12 12:38:32;;;;;;;13.75;2.95;;;23.30;34.60;;;;;;5048612;28;20419;-68
2021/04/12 12:41:02;;;;;;;5.13;1.50;;;23.40;35.20;;;;;;5048202;28;20449;-68
2021/04/12 12:43:37;;;;;;;9.75;1.35;;;23.50;34.20;;;;;;5048736;28;20127;-68
2021/04/12 12:46:19;;;;;;;7.57;1.48;;;23.50;34.20;;;;;;5048571;28;20041;-69
2021/04/12 12:48:57;;;;;;;7.20;1.23;;;23.40;34.00;;;;;;5048385;28;20025;-68
2021/04/12 12:51:28;;;;;;;8.57;1.77;;;23.30;34.40;;;;;;5048255;28;20029;-68
2021/04/12 12:54:02;;;;;;;13.05;1.75;;;23.10;34.40;;;;;;5048163;28;20531;-68
2021/04/12 12:56:31;;;;;;;4.63;1.25;;;23.00;34.70;;;;;;5048140;28;20528;-68
2021/04/12 12:59:01;;;;;;;6.78;1.35;;;23.00;34.80;;;;;;5048266;28;20569;-68
2021/04/12 13:01:34;;;;;;;7.57;1.20;;;23.10;35.00;;;;;;5048035;28;20109;-69
2021/04/12 13:04:11;;;;;;;7.30;2.10;;;23.10;34.90;;;;;;5048069;28;20029;-67
2021/04/12 13:06:38;;;;;;;10.98;1.70;;;23.20;34.60;;;;;;5046859;28;20090;-69
2021/04/12 13:09:21;;;;;;;12.70;1.60;;;23.10;34.50;;;;;;5047904;28;20406;-68
2021/04/12 13:11:49;;;;;;;4.82;1.38;;;23.10;34.60;;;;;;5047760;28;20029;-68
2021/04/12 13:14:27;;;;;;;5.55;1.73;;;23.00;34.10;;;;;;5047984;28;20039;-68
2021/04/12 13:16:53;;;;;;;4.57;1.60;;;23.00;34.90;;;;;;5047934;28;20029;-67
2021/04/12 13:19:22;;;;;;;4.22;1.15;;;23.10;34.90;;;;;;5046625;28;20036;-68
2021/04/12 13:21:54;;;;;;;7.35;1.63;;;23.30;34.00;;;;;;5047837;28;20613;-69
2021/04/12 13:24:33;;;;;;;7.80;1.52;;;23.40;33.80;;;;;;5046734;28;20037;-69
2021/04/12 13:27:17;;;;;;;8.15;1.55;;;23.50;34.10;;;;;;5048871;28;20497;-67
2021/04/12 13:29:45;;;;;;;6.22;1.70;;;23.60;34.10;;;;;;5051491;28;20084;-65
2021/04/12 13:32:12;;;;;;;8.23;1.50;;;23.70;33.30;;;;;;5051676;28;20120;-66
2021/04/12 13:34:54;;;;;;;5.00;1.63;;;23.60;33.30;;;;;;5051671;28;20025;-68
2021/04/12 13:37:39;;;;;;;6.40;1.38;;;23.70;33.60;;;;;;5051528;28;20076;-68
2021/04/12 13:40:40;;;;;;;5.93;2.13;;;23.60;33.40;;;;;;5051210;28;20048;-67
2021/04/12 13:43:08;;;;;;;7.22;1.30;;;23.50;33.40;;;;;;5051534;28;20358;-69
2021/04/12 13:45:42;;;;;;;7.88;1.30;;;23.30;33.20;;;;;;5051159;28;20132;-67
2021/04/12 13:48:28;;;;;;;15.90;1.88;;;23.20;33.70;;;;;;5051445;28;20029;-69
2021/04/12 13:51:14;;;;;;;4.13;1.38;;;23.00;34.20;;;;;;5050740;28;20456;-67
2021/04/12 13:53:48;;;;;;;10.13;1.45;;;22.90;34.80;;;;;;5047308;28;20171;-69
2021/04/12 13:56:44;;;;;;;14.60;2.17;;;22.60;34.80;;;;;;5051408;28;20029;-69
2021/04/12 13:59:20;;;;;;;3.10;1.15;;;22.60;35.20;;;;;;5051266;28;20040;-68
2021/04/12 14:02:02;;;;;;;7.38;2.03;;;22.60;35.50;;;;;;5049606;28;20401;-68
2021/04/12 14:05:01;;;;;;;17.17;5.90;;;22.60;35.50;;;;;;5051102;28;20033;-68
2021/04/12 14:07:47;;;;;;;11.82;3.05;;;22.70;35.30;;;;;;5037340;28;20037;-68
2021/04/12 14:10:23;;;;;;;7.97;1.60;;;22.70;34.70;;;;;;5051078;28;20036;-68
2021/04/12 14:12:51;;;;;;;;;;;22.70;35.10;;;;;;5051421;28;20067;-68
2021/04/12 14:15:26;;;;;;;17.15;1.67;;;22.60;35.30;;;;;;5051020;28;20414;-68
2021/04/12 14:18:19;;;;;;;7.10;1.25;;;22.50;35.20;;;;;;5050731;28;20021;-68
2021/04/12 14:20:46;;;;;;;3.28;1.88;;;22.40;35.70;;;;;;5049593;28;20025;-68
2021/04/12 14:23:19;;;;;;;8.35;1.83;;;22.20;35.50;;;;;;5050802;28;20036;-68